Portada
METAR-TAF:

METAR-TAF

Aeroports :

Aeroport Internacional de Tòquio

Tòquio Haneda, Japó

latitud: 35-33N, longitud: 139-47E, altitud: 5 m

Observació

L'informe es va fer fa 27 minuts, a les 18:30 UTC
Vent 13 kt del Sud/Sud-Oest
Temperatura 17°C
Humitat 72%
Pressió 1011 hPa
Visibilitat 10 km o més
sense núvols per sota de 1500 mi sense presència de cumulonimbus.

METAR: RJTT 181830Z 20013KT CAVOK 17/12 Q1011 NOSIG RMK A2985

Hora: 03:57 (18:57 UTC)

Pronòstic

L'informe es va fer fa 1 hora i 52 minuts, a les 17:05 UTC
Pronòstic vàlid del 18 a les 18 UTC al 20 a les 00 UTC
Vent 14 kt del Sud/Sud-Oest
Visibilitat 10 km o més
Escasses núvols a una alçada de 3000 ft
Evolucionant progressivament
l' 19 a les 01 UTC al 19 a les 03 UTC
Vent 10 kt del Sud/Sud-Est
Evolucionant progressivament
l' 19 a les 06 UTC al 19 a les 09 UTC
Vent 14 kt del Nord

TAF: RJTT 181705Z 1818/2000 21014KT 9999 FEW030 BECMG 1901/1903 15010KT BECMG 1906/1909 36014KT

Observacions i pronòstics meteorològics de més de 4000 aeroports (METAR i TAF).

Les estacions disponibles són els punts grocs i vermells al mapa.

Posi el ratolí al punt desitjat per veure el nom de l'estació.

Feu clic per veure les observacions i els pronòstics meteorològics.

Per canviar el mapa: feu clic els botons verds amb una creu de color negre per apropar; al botó verd amb un guió per allunyar la imatge; o en les fletxes verdes per a mapes adjacents.


METAR-TAF: